Time;durP1;ratioP1;P1;durP2;ratioP2;P2;SDS_P1;SDS_P2;PMS_P1;PMS_P2;Temp;Humidity;BMP_temperature;BMP_pressure;BME280_temperature;BME280_humidity;BME280_pressure;Samples;Min_cycle;Max_cycle;Signal;HPM_P1;HPM_P2
2020/12/21 00:01:53;;;;;;;0.70;0.40;;;8.90;99.90;;;;;;5114303;28;20465;-58
2020/12/21 00:04:21;;;;;;;0.70;0.40;;;8.90;99.90;;;;;;5114485;28;20474;-59
2020/12/21 00:06:52;;;;;;;0.90;0.40;;;9.00;99.90;;;;;;5113528;28;20708;-59
2020/12/21 00:09:18;;;;;;;1.02;0.40;;;9.10;99.90;;;;;;5113270;28;20425;-59
2020/12/21 00:11:44;;;;;;;0.80;0.40;;;9.10;99.90;;;;;;5114422;28;20463;-58
2020/12/21 00:14:11;;;;;;;0.60;0.32;;;9.20;99.90;;;;;;5114744;28;20513;-59
2020/12/21 00:16:39;;;;;;;0.50;0.38;;;9.20;99.90;;;;;;5114688;28;20424;-59
2020/12/21 00:19:07;;;;;;;0.60;0.40;;;9.20;99.90;;;;;;5115253;28;20579;-58
2020/12/21 00:21:34;;;;;;;0.80;0.40;;;9.30;99.90;;;;;;5112824;28;20679;-59
2020/12/21 00:24:01;;;;;;;1.20;0.30;;;9.40;99.90;;;;;;5112635;28;20420;-59
2020/12/21 00:26:27;;;;;;;0.68;0.40;;;9.40;99.90;;;;;;5113748;28;20423;-59
2020/12/21 00:28:53;;;;;;;0.70;0.30;;;9.40;99.90;;;;;;5114156;28;20428;-59
2020/12/21 00:31:24;;;;;;;0.73;0.40;;;9.40;99.90;;;;;;5114518;28;20850;-59
2020/12/21 00:33:51;;;;;;;0.90;0.40;;;9.40;99.90;;;;;;5115084;28;20420;-59
2020/12/21 00:36:18;;;;;;;0.60;0.30;;;9.40;99.90;;;;;;5114940;28;20462;-59
2020/12/21 00:38:45;;;;;;;0.60;0.40;;;9.40;99.90;;;;;;5115331;28;20767;-60
2020/12/21 00:41:14;;;;;;;0.60;0.40;;;9.30;99.90;;;;;;5115376;28;20782;-59
2020/12/21 00:43:40;;;;;;;0.70;0.40;;;9.20;99.90;;;;;;5115319;28;20923;-59
2020/12/21 00:46:07;;;;;;;1.00;0.40;;;9.10;99.90;;;;;;5114710;28;20444;-58
2020/12/21 00:48:33;;;;;;;1.10;0.50;;;9.00;99.90;;;;;;5115363;28;20736;-59
2020/12/21 00:51:00;;;;;;;0.70;0.40;;;8.90;99.90;;;;;;5115342;28;20448;-59
2020/12/21 00:53:26;;;;;;;0.70;0.40;;;8.80;99.90;;;;;;5114502;28;20719;-58
2020/12/21 00:55:54;;;;;;;0.80;0.50;;;8.80;99.90;;;;;;5114031;28;20416;-58
2020/12/21 00:58:20;;;;;;;0.80;0.50;;;8.80;99.90;;;;;;5112719;28;20489;-59
2020/12/21 01:00:47;;;;;;;0.60;0.40;;;8.80;99.90;;;;;;5112676;28;20759;-58
2020/12/21 01:03:15;;;;;;;0.80;0.40;;;8.90;99.90;;;;;;5112797;28;20435;-58
2020/12/21 01:05:42;;;;;;;0.60;0.40;;;9.00;99.90;;;;;;5112962;28;20416;-58
2020/12/21 01:08:08;;;;;;;0.60;0.32;;;9.00;99.90;;;;;;5112322;28;20835;-59
2020/12/21 01:10:35;;;;;;;0.70;0.30;;;9.00;99.90;;;;;;5112597;28;20480;-58
2020/12/21 01:13:02;;;;;;;0.60;0.38;;;9.10;99.90;;;;;;5113817;28;20455;-58
2020/12/21 01:15:28;;;;;;;0.85;0.40;;;9.00;99.90;;;;;;5114268;28;20408;-58
2020/12/21 01:17:55;;;;;;;0.60;0.37;;;9.10;99.90;;;;;;5113162;28;20439;-58
2020/12/21 01:20:21;;;;;;;0.70;0.40;;;9.10;99.90;;;;;;5114051;28;20448;-58
2020/12/21 01:22:47;;;;;;;1.10;0.32;;;9.10;99.90;;;;;;5114069;28;20431;-57
2020/12/21 01:25:14;;;;;;;0.80;0.40;;;9.10;99.90;;;;;;5114086;28;20412;-58
2020/12/21 01:27:40;;;;;;;0.93;0.40;;;9.00;99.90;;;;;;5115371;28;20428;-57
2020/12/21 01:30:08;;;;;;;0.80;0.40;;;8.90;99.90;;;;;;5114995;28;20490;-58
2020/12/21 01:32:34;;;;;;;0.82;0.50;;;8.80;99.90;;;;;;5115202;28;20464;-58
2020/12/21 01:35:00;;;;;;;0.90;0.40;;;8.80;99.90;;;;;;5114818;28;20847;-57
2020/12/21 01:37:27;;;;;;;0.60;0.40;;;8.70;99.90;;;;;;5114912;28;20427;-58
2020/12/21 01:39:53;;;;;;;1.55;0.40;;;8.60;99.90;;;;;;5118231;28;20470;-55
2020/12/21 01:42:20;;;;;;;1.08;0.50;;;8.50;99.90;;;;;;5119069;28;20482;-58
2020/12/21 01:44:47;;;;;;;1.60;0.40;;;8.50;99.90;;;;;;5118928;28;20865;-58
2020/12/21 01:47:15;;;;;;;1.00;0.40;;;8.50;99.90;;;;;;5119043;28;20436;-58
2020/12/21 01:49:42;;;;;;;1.20;0.40;;;8.40;99.90;;;;;;5118791;28;20836;-58
2020/12/21 01:52:10;;;;;;;0.70;0.40;;;8.40;99.90;;;;;;5117737;28;20471;-57
2020/12/21 01:57:26;;;;;;;0.70;0.40;;;8.30;99.90;;;;;;5100437;28;20427;-59
2020/12/21 01:59:52;;;;;;;0.70;0.40;;;8.20;99.90;;;;;;5117882;28;20447;-58
2020/12/21 02:02:20;;;;;;;0.80;0.50;;;8.20;99.90;;;;;;5118178;28;20855;-58
2020/12/21 02:04:46;;;;;;;0.93;0.40;;;8.20;99.90;;;;;;5117680;28;20861;-57
2020/12/21 02:07:13;;;;;;;0.60;0.40;;;8.20;99.90;;;;;;5118219;28;20424;-58
2020/12/21 02:09:40;;;;;;;0.75;0.32;;;8.20;99.90;;;;;;5118072;28;20428;-58
2020/12/21 02:12:07;;;;;;;0.70;0.40;;;8.20;99.90;;;;;;5118270;28;20424;-58
2020/12/21 02:14:33;;;;;;;1.60;0.30;;;8.10;99.90;;;;;;5116057;28;20468;-58
2020/12/21 02:17:00;;;;;;;0.50;0.30;;;8.20;99.90;;;;;;5113820;28;20459;-58
2020/12/21 02:19:27;;;;;;;1.20;0.40;;;8.10;99.90;;;;;;5113985;28;20431;-57
2020/12/21 02:21:55;;;;;;;0.80;0.40;;;8.10;99.90;;;;;;5113971;28;20516;-58
2020/12/21 02:24:21;;;;;;;1.27;0.40;;;8.00;99.90;;;;;;5114825;28;20428;-58
2020/12/21 02:26:47;;;;;;;1.00;0.40;;;8.00;99.90;;;;;;5114866;28;20424;-58
2020/12/21 02:29:14;;;;;;;0.60;0.30;;;8.00;99.90;;;;;;5114650;28;20459;-57
2020/12/21 02:31:40;;;;;;;0.70;0.40;;;7.90;99.90;;;;;;5115114;28;20443;-57
2020/12/21 02:34:07;;;;;;;0.60;0.40;;;7.90;99.90;;;;;;5117470;28;20451;-57
2020/12/21 02:36:33;;;;;;;1.30;0.80;;;7.90;99.90;;;;;;5117574;28;20516;-58
2020/12/21 02:39:01;;;;;;;2.20;1.10;;;7.80;99.90;;;;;;5118004;28;20504;-58
2020/12/21 02:41:27;;;;;;;3.85;2.10;;;7.70;99.90;;;;;;5117666;28;20890;-58
2020/12/21 02:43:53;;;;;;;2.88;2.10;;;7.70;99.90;;;;;;5118045;28;20408;-55
2020/12/21 02:46:20;;;;;;;2.50;1.75;;;7.60;99.90;;;;;;5117223;28;20481;-58
2020/12/21 02:48:48;;;;;;;2.60;1.30;;;7.60;99.90;;;;;;5117458;28;20785;-58
2020/12/21 02:51:16;;;;;;;2.33;1.20;;;7.60;99.90;;;;;;5117311;28;20701;-58
2020/12/21 02:53:42;;;;;;;1.93;1.00;;;7.60;99.90;;;;;;5116986;28;20416;-58
2020/12/21 02:56:10;;;;;;;2.17;1.00;;;7.70;99.90;;;;;;5117106;28;20423;-56
2020/12/21 02:58:37;;;;;;;1.50;0.77;;;7.70;99.90;;;;;;5117107;28;20416;-58
2020/12/21 03:01:03;;;;;;;1.65;0.80;;;7.70;99.90;;;;;;5117180;28;20419;-57
2020/12/21 03:03:30;;;;;;;1.70;0.70;;;7.70;99.90;;;;;;5116073;28;20776;-58
2020/12/21 03:05:56;;;;;;;1.15;0.70;;;7.70;99.90;;;;;;5117327;28;20420;-56
2020/12/21 03:08:22;;;;;;;1.20;0.70;;;7.60;99.90;;;;;;5117434;28;20424;-57
2020/12/21 03:10:49;;;;;;;1.60;0.60;;;7.60;99.90;;;;;;5116437;28;20464;-57
2020/12/21 03:13:16;;;;;;;1.00;0.60;;;7.60;99.90;;;;;;5117467;28;20802;-57
2020/12/21 03:15:43;;;;;;;1.30;0.60;;;7.60;99.90;;;;;;5115667;28;20412;-57
2020/12/21 03:18:09;;;;;;;0.90;0.50;;;7.70;99.90;;;;;;5115592;28;20875;-58
2020/12/21 03:20:36;;;;;;;0.90;0.60;;;7.60;99.90;;;;;;5115827;28;20416;-57
2020/12/21 03:23:02;;;;;;;1.20;0.50;;;7.60;99.90;;;;;;5115833;28;20755;-57
2020/12/21 03:25:28;;;;;;;1.10;0.50;;;7.60;99.90;;;;;;5114727;28;20456;-58
2020/12/21 03:27:55;;;;;;;0.90;0.60;;;7.50;99.90;;;;;;5115359;28;20470;-57
2020/12/21 03:30:22;;;;;;;0.90;0.60;;;7.50;99.90;;;;;;5115970;28;20428;-57
2020/12/21 03:32:49;;;;;;;0.95;0.52;;;7.40;99.90;;;;;;5116673;28;20424;-57
2020/12/21 03:35:15;;;;;;;1.15;0.60;;;7.40;99.90;;;;;;5115869;28;20448;-57
2020/12/21 03:37:41;;;;;;;1.10;0.60;;;7.40;99.90;;;;;;5115395;28;20781;-57
2020/12/21 03:40:08;;;;;;;1.00;0.60;;;7.40;99.90;;;;;;5115208;28;20499;-57
2020/12/21 03:42:35;;;;;;;1.10;0.60;;;7.30;99.90;;;;;;5115783;28;20564;-57
2020/12/21 03:45:01;;;;;;;1.00;0.50;;;7.30;99.90;;;;;;5114158;28;20416;-57
2020/12/21 03:47:29;;;;;;;1.00;0.50;;;7.20;99.90;;;;;;5114496;28;20448;-57
2020/12/21 03:49:55;;;;;;;1.20;0.60;;;7.20;99.90;;;;;;5115707;28;20522;-58
2020/12/21 03:52:21;;;;;;;0.90;0.50;;;7.10;99.90;;;;;;5116610;28;20424;-57
2020/12/21 03:54:48;;;;;;;0.90;0.60;;;7.10;99.90;;;;;;5115272;28;20844;-57
2020/12/21 03:57:14;;;;;;;0.98;0.60;;;7.10;99.90;;;;;;5116354;28;20420;-57
2020/12/21 03:59:41;;;;;;;1.10;0.60;;;7.10;99.90;;;;;;5116381;28;20412;-57
2020/12/21 04:02:07;;;;;;;1.20;0.80;;;7.10;99.90;;;;;;5115637;28;20744;-56
2020/12/21 04:04:34;;;;;;;1.40;0.83;;;7.30;99.90;;;;;;5116196;28;20473;-57
2020/12/21 04:07:01;;;;;;;2.70;1.10;;;7.30;99.90;;;;;;5116211;28;20481;-57
2020/12/21 04:09:27;;;;;;;2.72;1.20;;;7.40;99.90;;;;;;5116249;28;20486;-57
2020/12/21 04:11:54;;;;;;;1.40;0.90;;;7.40;99.90;;;;;;5116160;28;20427;-58
2020/12/21 04:14:20;;;;;;;1.00;0.70;;;7.40;99.90;;;;;;5116620;28;20489;-57
2020/12/21 04:16:46;;;;;;;1.10;0.60;;;7.30;99.90;;;;;;5115707;28;20467;-56
2020/12/21 04:19:13;;;;;;;0.70;0.50;;;7.30;99.90;;;;;;5114666;28;20416;-57
2020/12/21 04:21:40;;;;;;;1.30;0.70;;;7.30;99.90;;;;;;5115719;28;20431;-57
2020/12/21 04:24:07;;;;;;;0.90;0.60;;;7.30;99.90;;;;;;5115486;28;20854;-57
2020/12/21 04:26:33;;;;;;;1.10;0.60;;;7.20;99.90;;;;;;5115650;28;20451;-57
2020/12/21 04:29:00;;;;;;;1.15;0.60;;;7.10;99.90;;;;;;5114219;28;20732;-57
2020/12/21 04:31:26;;;;;;;0.90;0.60;;;7.20;99.90;;;;;;5115192;28;20420;-57
2020/12/21 04:33:53;;;;;;;2.20;0.63;;;7.20;99.90;;;;;;5113372;28;20751;-57
2020/12/21 04:36:19;;;;;;;1.10;0.60;;;7.20;99.90;;;;;;5113119;28;20448;-57
2020/12/21 04:38:46;;;;;;;1.10;0.60;;;7.30;99.90;;;;;;5115689;28;20777;-57
2020/12/21 04:41:14;;;;;;;1.00;0.60;;;7.30;99.90;;;;;;5115183;28;20413;-55
2020/12/21 04:43:40;;;;;;;2.50;0.70;;;7.30;99.90;;;;;;5114503;28;20408;-58
2020/12/21 04:46:08;;;;;;;1.10;0.60;;;7.30;99.90;;;;;;5115447;28;20423;-57
2020/12/21 04:48:39;;;;;;;1.20;0.60;;;7.40;99.90;;;;;;5115523;28;20426;-57
2020/12/21 04:51:07;;;;;;;1.17;0.50;;;7.30;99.90;;;;;;5115031;28;20463;-55
2020/12/21 04:53:34;;;;;;;0.98;0.70;;;7.20;99.90;;;;;;5115224;28;20436;-58
2020/12/21 04:56:01;;;;;;;1.40;0.60;;;7.20;99.90;;;;;;5115011;28;20413;-55
2020/12/21 04:58:28;;;;;;;1.00;0.60;;;7.10;99.90;;;;;;5115343;28;20412;-57
2020/12/21 05:00:54;;;;;;;1.25;0.70;;;7.00;99.90;;;;;;5115034;28;20443;-56
2020/12/21 05:03:21;;;;;;;1.70;0.60;;;6.90;99.90;;;;;;5115559;28;20731;-56
2020/12/21 05:05:47;;;;;;;1.30;0.70;;;6.90;99.90;;;;;;5115481;28;20416;-56
2020/12/21 05:08:16;;;;;;;1.20;0.70;;;6.90;99.90;;;;;;5115596;28;20793;-60
2020/12/21 05:10:45;;;;;;;1.20;0.60;;;6.90;99.90;;;;;;5115195;28;20461;-57
2020/12/21 05:13:13;;;;;;;1.00;0.60;;;6.90;99.90;;;;;;5115482;28;20855;-57
2020/12/21 05:15:40;;;;;;;1.50;0.70;;;6.90;99.90;;;;;;5119548;28;20420;-56
2020/12/21 05:18:09;;;;;;;2.57;0.60;;;6.90;99.90;;;;;;5118838;28;20522;-55
2020/12/21 05:20:36;;;;;;;1.70;0.60;;;6.90;99.90;;;;;;5118959;28;20831;-55
2020/12/21 05:23:04;;;;;;;1.20;0.60;;;6.90;99.90;;;;;;5118127;28;20763;-61
2020/12/21 05:25:31;;;;;;;1.27;0.50;;;6.90;99.90;;;;;;5117587;28;20828;-59
2020/12/21 05:28:09;;;;;;;1.58;0.60;;;6.90;99.90;;;;;;5116979;28;20426;-58
2020/12/21 05:30:37;;;;;;;1.00;0.60;;;6.90;99.90;;;;;;5117024;28;20432;-58
2020/12/21 05:33:04;;;;;;;1.80;0.70;;;6.90;99.90;;;;;;5116512;28;20424;-59
2020/12/21 05:35:30;;;;;;;1.40;0.60;;;6.90;99.90;;;;;;5116558;28;20423;-58
2020/12/21 05:37:57;;;;;;;1.40;0.70;;;6.90;99.90;;;;;;5116763;28;20506;-59
2020/12/21 05:40:27;;;;;;;1.02;0.70;;;6.90;99.90;;;;;;5117450;28;20784;-58
2020/12/21 05:42:53;;;;;;;1.25;0.70;;;6.90;99.90;;;;;;5118516;28;20463;-58
2020/12/21 05:45:20;;;;;;;1.90;0.70;;;6.90;99.90;;;;;;5118135;28;20535;-58
2020/12/21 05:47:49;;;;;;;1.20;0.60;;;7.00;99.90;;;;;;5118821;28;20450;-58
2020/12/21 05:50:20;;;;;;;1.20;0.70;;;7.00;99.90;;;;;;5118386;28;20424;-58
2020/12/21 05:52:53;;;;;;;1.20;0.70;;;7.10;99.90;;;;;;5118827;28;20431;-58
2020/12/21 05:55:21;;;;;;;1.10;0.60;;;7.10;99.90;;;;;;5118825;28;20427;-58
2020/12/21 05:57:49;;;;;;;1.02;0.60;;;7.20;99.90;;;;;;5118835;28;20526;-59
2020/12/21 06:00:16;;;;;;;1.10;0.70;;;7.20;99.90;;;;;;5118557;28;20902;-59
2020/12/21 06:02:43;;;;;;;1.70;0.70;;;7.30;99.90;;;;;;5117304;28;20427;-59
2020/12/21 06:05:11;;;;;;;1.50;0.70;;;7.30;99.90;;;;;;5117442;28;20446;-59
2020/12/21 06:07:38;;;;;;;1.58;1.00;;;7.40;99.90;;;;;;5118088;28;20424;-59
2020/12/21 06:10:07;;;;;;;1.00;0.70;;;7.30;99.90;;;;;;5117321;28;20911;-59
2020/12/21 06:12:44;;;;;;;1.52;0.70;;;7.30;99.90;;;;;;5102439;28;20433;-59
2020/12/21 06:15:12;;;;;;;1.23;0.80;;;7.30;99.90;;;;;;5095265;28;20410;-59
2020/12/21 06:17:39;;;;;;;1.33;0.70;;;7.20;99.90;;;;;;5098297;28;20439;-58
2020/12/21 06:20:07;;;;;;;1.50;0.98;;;7.20;99.90;;;;;;5116485;28;21105;-59
2020/12/21 06:22:34;;;;;;;2.47;0.90;;;7.10;99.90;;;;;;5117074;28;20524;-59
2020/12/21 06:25:01;;;;;;;1.00;0.70;;;7.20;99.90;;;;;;5116171;28;20455;-59
2020/12/21 06:27:38;;;;;;;1.60;0.80;;;7.30;99.90;;;;;;5116710;28;20420;-59
2020/12/21 06:30:06;;;;;;;1.80;0.80;;;7.20;99.90;;;;;;5117010;28;20834;-59
2020/12/21 06:32:34;;;;;;;1.00;0.70;;;7.30;99.90;;;;;;5117163;28;20432;-59
2020/12/21 06:35:01;;;;;;;1.65;0.70;;;7.40;99.90;;;;;;5117036;28;20778;-59
2020/12/21 06:37:28;;;;;;;1.42;0.70;;;7.30;99.90;;;;;;5117695;28;20723;-59
2020/12/21 06:40:00;;;;;;;1.30;0.80;;;7.20;99.90;;;;;;5117559;28;20752;-59
2020/12/21 06:42:27;;;;;;;1.10;0.80;;;7.10;99.90;;;;;;5118131;28;20460;-59
2020/12/21 06:44:55;;;;;;;1.10;0.70;;;6.90;99.90;;;;;;5117746;28;20420;-59
2020/12/21 06:47:22;;;;;;;1.10;0.70;;;6.90;99.90;;;;;;5117185;28;20473;-62
2020/12/21 06:49:49;;;;;;;1.30;0.68;;;6.90;99.90;;;;;;5117699;28;20454;-59
2020/12/21 06:52:16;;;;;;;1.20;0.70;;;7.00;99.90;;;;;;5117751;28;20463;-58
2020/12/21 06:54:43;;;;;;;1.10;0.70;;;7.10;99.90;;;;;;5116278;28;20478;-59
2020/12/21 06:57:10;;;;;;;1.50;0.70;;;7.10;99.90;;;;;;5116624;28;20804;-58
2020/12/21 06:59:37;;;;;;;0.90;0.60;;;7.20;99.90;;;;;;5115791;28;20416;-58
2020/12/21 07:02:03;;;;;;;0.90;0.60;;;7.40;99.90;;;;;;5115805;28;20424;-59
2020/12/21 07:04:32;;;;;;;1.20;0.77;;;7.50;99.90;;;;;;5106551;28;20429;-59
2020/12/21 07:07:01;;;;;;;1.20;0.77;;;7.60;99.90;;;;;;5098754;28;20439;-59
2020/12/21 07:09:30;;;;;;;1.85;0.80;;;7.50;99.90;;;;;;5114241;28;20419;-59
2020/12/21 07:11:59;;;;;;;1.30;0.80;;;7.30;99.90;;;;;;5115026;28;20427;-57
2020/12/21 07:14:28;;;;;;;2.30;0.90;;;7.10;99.90;;;;;;5116317;28;20734;-59
2020/12/21 07:17:05;;;;;;;2.65;0.90;;;7.00;99.90;;;;;;5114293;28;20474;-59
2020/12/21 07:19:33;;;;;;;1.33;0.80;;;6.80;99.90;;;;;;5116080;28;20816;-59
2020/12/21 07:22:01;;;;;;;1.30;0.80;;;6.80;99.90;;;;;;5114569;28;20447;-59
2020/12/21 07:24:28;;;;;;;1.67;0.70;;;6.80;99.90;;;;;;5114287;28;20566;-59
2020/12/21 07:26:54;;;;;;;1.30;0.80;;;6.80;99.90;;;;;;5115726;28;20455;-58
2020/12/21 07:29:21;;;;;;;1.10;0.70;;;6.80;99.90;;;;;;5115007;28;20420;-58
2020/12/21 07:31:49;;;;;;;1.45;0.80;;;6.90;99.90;;;;;;5115423;28;20964;-58
2020/12/21 07:34:15;;;;;;;1.30;0.70;;;7.00;99.90;;;;;;5115994;28;20443;-59
2020/12/21 07:36:42;;;;;;;1.40;0.73;;;7.00;99.90;;;;;;5114653;28;20415;-59
2020/12/21 07:39:10;;;;;;;1.00;0.70;;;7.10;99.90;;;;;;5116184;28;20452;-59
2020/12/21 07:41:38;;;;;;;1.40;0.80;;;7.00;99.90;;;;;;5116110;28;20489;-58
2020/12/21 07:44:10;;;;;;;1.83;0.80;;;6.90;99.90;;;;;;5115997;28;20423;-59
2020/12/21 07:46:40;;;;;;;1.30;0.80;;;6.90;99.90;;;;;;5115134;28;20431;-59
2020/12/21 07:49:10;;;;;;;2.50;0.70;;;7.10;99.90;;;;;;5116543;28;20412;-58
2020/12/21 07:51:39;;;;;;;1.35;0.80;;;7.10;99.90;;;;;;5115517;28;20474;-57
2020/12/21 07:54:08;;;;;;;2.60;0.80;;;7.10;99.90;;;;;;5115128;28;20456;-57
2020/12/21 07:56:34;;;;;;;1.40;0.80;;;7.10;99.90;;;;;;5115133;28;20452;-57
2020/12/21 07:59:12;;;;;;;1.70;0.90;;;7.10;99.90;;;;;;5114625;28;20726;-57
2020/12/21 08:01:40;;;;;;;1.60;0.80;;;7.00;99.90;;;;;;5114465;28;20519;-58
2020/12/21 08:04:17;;;;;;;1.65;0.70;;;7.00;99.90;;;;;;5113732;28;20489;-58
2020/12/21 08:06:44;;;;;;;1.50;0.90;;;7.00;99.90;;;;;;5100344;28;20479;-58
2020/12/21 08:09:10;;;;;;;1.40;0.90;;;7.00;99.90;;;;;;5094620;28;20483;-58
2020/12/21 08:11:37;;;;;;;1.40;1.00;;;6.90;99.90;;;;;;5094525;28;20434;-58
2020/12/21 08:14:06;;;;;;;2.10;1.00;;;6.90;99.90;;;;;;5095215;28;20898;-57
2020/12/21 08:16:33;;;;;;;1.40;0.82;;;6.80;99.90;;;;;;5094289;28;20426;-56
2020/12/21 08:19:00;;;;;;;2.00;0.90;;;6.80;99.90;;;;;;5095120;28;20500;-58
2020/12/21 08:21:28;;;;;;;3.40;1.00;;;6.80;99.90;;;;;;5094537;28;20426;-58
2020/12/21 08:23:58;;;;;;;1.90;1.00;;;6.90;99.90;;;;;;5092881;28;20452;-58
2020/12/21 08:26:25;;;;;;;1.30;0.90;;;6.90;99.90;;;;;;5093364;28;20470;-58
2020/12/21 08:28:55;;;;;;;3.20;1.10;;;6.90;99.90;;;;;;5093533;28;21493;-58
2020/12/21 08:31:23;;;;;;;1.83;0.90;;;6.90;99.90;;;;;;5094323;28;20880;-58
2020/12/21 08:34:01;;;;;;;2.00;1.00;;;6.90;99.90;;;;;;5092815;28;20845;-58
2020/12/21 08:36:32;;;;;;;2.00;0.80;;;6.90;99.90;;;;;;5098351;28;20461;-58
2020/12/21 08:39:10;;;;;;;1.45;0.95;;;6.90;99.90;;;;;;5108954;28;20485;-57
2020/12/21 08:41:38;;;;;;;1.30;0.90;;;6.90;99.90;;;;;;5112258;28;20831;-58
2020/12/21 08:44:13;;;;;;;2.17;1.00;;;6.90;99.90;;;;;;5113027;28;20444;-58
2020/12/21 08:46:46;;;;;;;2.20;1.00;;;6.80;99.90;;;;;;5110256;28;20415;-58
2020/12/21 08:49:13;;;;;;;1.40;0.90;;;6.80;99.90;;;;;;5109782;28;20584;-58
2020/12/21 08:51:41;;;;;;;2.40;0.90;;;6.80;99.90;;;;;;5109017;28;20521;-58
2020/12/21 08:54:07;;;;;;;1.73;1.00;;;6.90;99.90;;;;;;5112150;28;20509;-58
2020/12/21 08:56:34;;;;;;;1.70;0.80;;;6.90;99.90;;;;;;5111941;28;20432;-58
2020/12/21 08:59:00;;;;;;;1.77;0.90;;;6.90;99.90;;;;;;5112309;28;20452;-58
2020/12/21 09:01:27;;;;;;;1.60;0.80;;;6.90;99.90;;;;;;5113997;28;20496;-58
2020/12/21 09:03:53;;;;;;;1.45;0.90;;;7.00;99.90;;;;;;5114256;28;20415;-59
2020/12/21 09:06:21;;;;;;;1.40;0.80;;;7.00;99.90;;;;;;5113545;28;20459;-59
2020/12/21 09:08:48;;;;;;;1.70;0.82;;;7.00;99.90;;;;;;5112724;28;20533;-58
2020/12/21 09:11:18;;;;;;;1.50;0.90;;;7.10;99.90;;;;;;5105593;28;20530;-59
2020/12/21 09:13:44;;;;;;;1.20;0.80;;;7.10;99.90;;;;;;5100299;28;20437;-59
2020/12/21 09:16:11;;;;;;;3.42;0.90;;;7.10;99.90;;;;;;5097508;28;20460;-58
2020/12/21 09:18:37;;;;;;;1.38;0.80;;;7.10;99.90;;;;;;5109746;28;20451;-59
2020/12/21 09:21:04;;;;;;;1.40;0.70;;;7.20;99.90;;;;;;5111660;28;20690;-58
2020/12/21 09:23:32;;;;;;;1.88;0.85;;;7.30;99.90;;;;;;5110141;28;20452;-59
2020/12/21 09:25:59;;;;;;;1.80;0.80;;;7.30;99.90;;;;;;5109470;28;20510;-58
2020/12/21 09:28:26;;;;;;;1.60;0.80;;;7.40;99.90;;;;;;5109887;28;20460;-59
2020/12/21 09:30:52;;;;;;;1.13;0.70;;;7.50;99.90;;;;;;5110530;28;20463;-58
2020/12/21 09:33:19;;;;;;;1.70;0.80;;;7.50;99.90;;;;;;5110757;28;20481;-59
2020/12/21 09:35:45;;;;;;;1.47;0.70;;;7.50;99.90;;;;;;5108593;28;20417;-58
2020/12/21 09:38:11;;;;;;;1.30;0.60;;;7.50;99.90;;;;;;5109712;28;20689;-58
2020/12/21 09:40:38;;;;;;;1.53;0.77;;;7.50;99.90;;;;;;5104456;28;20505;-58
2020/12/21 09:43:05;;;;;;;1.30;0.60;;;7.60;99.90;;;;;;5099315;28;20428;-59
2020/12/21 09:45:32;;;;;;;1.10;0.70;;;7.60;99.90;;;;;;5096892;28;20433;-59
2020/12/21 09:47:58;;;;;;;1.27;0.70;;;7.70;99.90;;;;;;5101030;28;20469;-59
2020/12/21 09:50:24;;;;;;;1.50;0.70;;;7.80;99.90;;;;;;5092007;28;20452;-59
2020/12/21 09:52:51;;;;;;;3.13;2.15;;;7.80;99.90;;;;;;5103240;28;20462;-58
2020/12/21 09:55:17;;;;;;;2.30;1.02;;;7.80;99.90;;;;;;5111278;28;20891;-59
2020/12/21 09:57:44;;;;;;;1.60;0.70;;;7.90;99.90;;;;;;5110748;28;20423;-59
2020/12/21 10:00:11;;;;;;;2.30;0.80;;;8.00;99.90;;;;;;5114795;28;20435;-59
2020/12/21 10:02:37;;;;;;;1.20;0.70;;;7.90;99.90;;;;;;5104795;28;20422;-59
2020/12/21 10:05:04;;;;;;;2.60;0.80;;;7.90;99.90;;;;;;5095165;28;20818;-59
2020/12/21 10:07:31;;;;;;;1.60;0.80;;;7.80;99.90;;;;;;5103398;28;20743;-59
2020/12/21 10:09:57;;;;;;;1.30;0.75;;;7.90;99.90;;;;;;5099724;28;20435;-59
2020/12/21 10:12:23;;;;;;;1.60;0.80;;;7.90;99.90;;;;;;5113741;28;20458;-59
2020/12/21 10:14:50;;;;;;;1.90;0.90;;;8.00;99.90;;;;;;5105596;28;20465;-59
2020/12/21 10:17:17;;;;;;;2.63;0.85;;;8.00;99.90;;;;;;5111566;28;20427;-59
2020/12/21 10:19:44;;;;;;;1.85;0.70;;;8.20;99.90;;;;;;5105316;28;20481;-59
2020/12/21 10:22:10;;;;;;;1.60;0.60;;;8.30;99.90;;;;;;5101154;28;20427;-59
2020/12/21 10:24:37;;;;;;;1.40;0.70;;;8.30;99.90;;;;;;5113425;28;20420;-59
2020/12/21 10:27:04;;;;;;;2.20;0.70;;;8.30;99.90;;;;;;5101138;28;20501;-59
2020/12/21 10:29:30;;;;;;;2.40;0.70;;;8.20;99.90;;;;;;5109367;28;20837;-59
2020/12/21 10:31:58;;;;;;;1.00;0.60;;;8.20;99.90;;;;;;5106871;28;20455;-59
2020/12/21 10:34:25;;;;;;;1.30;0.68;;;8.20;99.90;;;;;;5105326;28;20416;-59
2020/12/21 10:36:52;;;;;;;1.30;0.60;;;8.20;99.90;;;;;;5102802;28;20457;-59
2020/12/21 10:39:19;;;;;;;0.80;0.50;;;8.30;99.90;;;;;;5101895;28;20461;-59
2020/12/21 10:41:47;;;;;;;0.80;0.60;;;8.50;99.90;;;;;;5112994;28;20451;-58
2020/12/21 10:44:13;;;;;;;1.20;0.60;;;8.60;99.90;;;;;;5109748;28;20723;-58
2020/12/21 10:46:40;;;;;;;2.08;0.50;;;8.60;99.90;;;;;;5108517;28;20620;-59
2020/12/21 10:49:07;;;;;;;1.33;0.60;;;8.50;99.90;;;;;;5102657;28;20430;-58
2020/12/21 10:51:34;;;;;;;1.90;0.70;;;8.50;99.90;;;;;;5093775;28;20468;-58
2020/12/21 10:54:02;;;;;;;0.80;0.50;;;8.50;99.90;;;;;;5092834;28;20449;-59
2020/12/21 10:56:29;;;;;;;1.60;0.70;;;8.40;99.90;;;;;;5093396;28;20558;-59
2020/12/21 10:58:55;;;;;;;1.08;0.50;;;8.40;99.90;;;;;;5100694;28;20440;-59
2020/12/21 11:01:22;;;;;;;0.90;0.50;;;8.40;99.90;;;;;;5093212;28;20429;-59
2020/12/21 11:03:49;;;;;;;0.90;0.53;;;8.50;99.90;;;;;;5113848;28;20456;-58
2020/12/21 11:06:20;;;;;;;1.50;0.60;;;8.70;99.90;;;;;;5114304;28;20513;-59
2020/12/21 11:08:47;;;;;;;1.55;0.50;;;8.80;99.90;;;;;;5111158;28;20435;-59
2020/12/21 11:11:15;;;;;;;0.98;0.50;;;8.80;99.90;;;;;;5106072;28;20428;-59
2020/12/21 11:13:42;;;;;;;0.90;0.50;;;8.90;99.90;;;;;;5113920;28;20454;-59
2020/12/21 11:16:10;;;;;;;1.10;0.50;;;9.00;99.90;;;;;;5114175;28;20421;-59
2020/12/21 11:18:37;;;;;;;2.08;0.52;;;9.10;99.90;;;;;;5113760;28;20944;-59
2020/12/21 11:21:13;;;;;;;1.50;0.50;;;9.30;99.90;;;;;;5113774;28;20412;-59
2020/12/21 11:23:40;;;;;;;0.93;0.50;;;9.40;99.90;;;;;;5108445;28;20461;-59
2020/12/21 11:26:07;;;;;;;1.20;0.50;;;9.30;99.90;;;;;;5113775;28;20415;-59
2020/12/21 11:28:34;;;;;;;0.93;0.50;;;9.30;99.90;;;;;;5113457;28;20755;-59
2020/12/21 11:31:01;;;;;;;0.90;0.60;;;9.40;99.90;;;;;;5112588;28;21039;-59
2020/12/21 11:33:27;;;;;;;0.85;0.47;;;9.30;99.90;;;;;;5104966;28;20456;-58
2020/12/21 11:35:55;;;;;;;1.00;0.60;;;9.20;99.90;;;;;;5110048;28;20440;-59
2020/12/21 11:38:25;;;;;;;1.17;0.50;;;9.20;99.90;;;;;;5104980;28;20430;-59
2020/12/21 11:40:51;;;;;;;2.33;0.60;;;9.10;99.90;;;;;;5093496;28;20540;-59
2020/12/21 11:43:18;;;;;;;2.30;0.60;;;9.20;99.90;;;;;;5092260;28;20926;-58
2020/12/21 11:45:46;;;;;;;0.80;0.50;;;9.30;99.90;;;;;;5091695;28;20417;-59
2020/12/21 11:48:12;;;;;;;2.30;0.50;;;9.20;99.90;;;;;;5091470;28;20430;-60
2020/12/21 11:50:38;;;;;;;0.90;0.60;;;9.10;99.90;;;;;;5091225;28;20492;-59
2020/12/21 11:53:05;;;;;;;1.90;0.60;;;9.10;99.90;;;;;;5090615;28;20413;-59
2020/12/21 11:55:31;;;;;;;1.23;0.70;;;9.10;99.90;;;;;;5091002;28;20441;-60
2020/12/21 11:57:58;;;;;;;1.35;0.50;;;9.10;99.90;;;;;;5092058;28;20458;-59
2020/12/21 12:00:25;;;;;;;0.70;0.50;;;9.20;99.90;;;;;;5090983;28;20418;-59
2020/12/21 12:02:52;;;;;;;1.00;0.60;;;9.10;99.90;;;;;;5091070;28;20426;-58
2020/12/21 12:05:18;;;;;;;0.90;0.60;;;9.20;99.90;;;;;;5090933;28;20529;-59
2020/12/21 12:07:44;;;;;;;1.27;0.50;;;9.10;99.90;;;;;;5090277;28;20465;-59
2020/12/21 12:10:11;;;;;;;1.00;0.60;;;9.30;99.90;;;;;;5091836;28;20421;-59
2020/12/21 12:12:37;;;;;;;0.80;0.50;;;9.30;99.90;;;;;;5091302;28;20459;-59
2020/12/21 12:15:04;;;;;;;1.67;0.60;;;9.40;99.90;;;;;;5090834;28;20507;-59
2020/12/21 12:17:32;;;;;;;1.50;0.70;;;9.50;99.90;;;;;;5091016;28;20420;-59
2020/12/21 12:19:58;;;;;;;0.93;0.40;;;9.60;99.90;;;;;;5096944;28;20425;-59
2020/12/21 12:22:25;;;;;;;0.70;0.40;;;9.70;99.90;;;;;;5098241;28;20541;-59
2020/12/21 12:24:51;;;;;;;0.85;0.50;;;9.70;99.90;;;;;;5098227;28;20417;-60
2020/12/21 12:27:17;;;;;;;1.60;0.43;;;9.70;99.90;;;;;;5099612;28;20434;-59
2020/12/21 12:29:44;;;;;;;1.20;0.80;;;9.70;99.90;;;;;;5090570;28;20753;-59
2020/12/21 12:32:10;;;;;;;1.10;0.60;;;9.60;99.90;;;;;;5092279;28;20421;-59
2020/12/21 12:34:39;;;;;;;2.00;0.60;;;9.50;99.90;;;;;;5090701;28;20508;-59
2020/12/21 12:37:05;;;;;;;1.10;0.50;;;9.70;99.90;;;;;;5092404;28;20433;-60
2020/12/21 12:39:32;;;;;;;0.73;0.50;;;9.60;99.90;;;;;;5092217;28;20753;-59
2020/12/21 12:41:58;;;;;;;1.00;0.50;;;9.70;99.90;;;;;;5091429;28;20429;-59
2020/12/21 12:44:25;;;;;;;1.00;0.50;;;9.70;99.90;;;;;;5090670;28;20569;-59
2020/12/21 12:46:51;;;;;;;0.75;0.50;;;9.70;99.90;;;;;;5092438;28;20876;-59
2020/12/21 12:49:18;;;;;;;0.85;0.40;;;9.70;99.90;;;;;;5092539;28;20457;-59
2020/12/21 12:51:45;;;;;;;0.73;0.50;;;9.80;99.90;;;;;;5090124;28;20426;-59
2020/12/21 12:54:11;;;;;;;1.00;0.50;;;10.00;99.90;;;;;;5091269;28;20441;-59
2020/12/21 12:56:44;;;;;;;0.80;0.50;;;10.00;99.90;;;;;;5092355;28;20455;-59
2020/12/21 12:59:11;;;;;;;0.70;0.50;;;10.00;99.90;;;;;;5093248;28;20872;-59
2020/12/21 13:01:37;;;;;;;0.80;0.50;;;10.00;99.90;;;;;;5090513;28;20421;-59